createdAt,value
2018-04-25T00:01:20.591Z,3.30
2018-04-25T00:06:24.572Z,2.40
2018-04-25T00:11:28.157Z,3.20
2018-04-25T00:16:31.836Z,2.43
2018-04-25T00:21:35.073Z,2.93
2018-04-25T00:26:38.809Z,2.90
2018-04-25T00:31:41.809Z,2.90
2018-04-25T00:36:45.640Z,2.57
2018-04-25T00:41:49.392Z,2.60
2018-04-25T00:46:52.795Z,3.27
2018-04-25T00:51:56.765Z,3.10
2018-04-25T00:56:59.841Z,4.30
2018-04-25T01:02:03.549Z,3.87
2018-04-25T01:07:06.716Z,3.90
2018-04-25T01:12:10.865Z,3.33
2018-04-25T01:17:14.308Z,3.10
2018-04-25T01:22:18.004Z,2.70
2018-04-25T01:27:21.290Z,3.70
2018-04-25T01:32:25.216Z,3.00
2018-04-25T01:37:33.023Z,3.33
2018-04-25T01:42:37.168Z,3.60
2018-04-25T01:47:41.505Z,3.03
2018-04-25T01:52:55.768Z,2.93
2018-04-25T01:58:09.795Z,3.67
2018-04-25T02:03:11.929Z,3.60
2018-04-25T02:08:15.646Z,3.20
2018-04-25T02:13:18.720Z,2.60
2018-04-25T02:18:23.001Z,3.97
2018-04-25T02:23:28.106Z,3.53
2018-04-25T02:28:31.768Z,3.43
2018-04-25T02:33:34.628Z,3.63
2018-04-25T02:38:37.768Z,3.63
2018-04-25T02:43:40.862Z,4.40
2018-04-25T02:48:43.776Z,3.37
2018-04-25T02:53:47.362Z,3.33
2018-04-25T02:58:50.418Z,3.87
2018-04-25T03:03:53.830Z,4.20
2018-04-25T03:08:57.317Z,3.90
2018-04-25T03:14:00.256Z,2.50
2018-04-25T03:19:03.217Z,3.10
2018-04-25T03:24:07.384Z,2.17
2018-04-25T03:29:10.875Z,2.40
2018-04-25T03:34:13.897Z,2.90
2018-04-25T03:39:17.128Z,2.10
2018-04-25T03:44:19.968Z,2.50
2018-04-25T03:49:23.091Z,2.70
2018-04-25T03:54:26.568Z,2.30
2018-04-25T03:59:30.679Z,2.77
2018-04-25T04:04:34.410Z,3.43
2018-04-25T04:09:37.746Z,6.53
2018-04-25T04:14:41.941Z,2.97
2018-04-25T04:19:45.750Z,2.27
2018-04-25T04:24:49.810Z,2.83
2018-04-25T04:29:53.652Z,3.23
2018-04-25T04:34:57.097Z,9.77
2018-04-25T04:40:01.764Z,7.90
2018-04-25T04:45:04.697Z,3.67
2018-04-25T04:50:07.785Z,5.30
2018-04-25T04:55:11.014Z,3.07
2018-04-25T05:00:14.353Z,3.63
2018-04-25T05:05:17.247Z,3.40
2018-04-25T05:10:20.778Z,2.70
2018-04-25T05:15:24.932Z,4.60
2018-04-25T05:20:29.436Z,4.10
2018-04-25T05:25:32.296Z,2.30
2018-04-25T05:30:36.456Z,2.30
2018-04-25T05:35:39.515Z,4.43
2018-04-25T05:40:42.307Z,4.27
2018-04-25T05:45:45.276Z,2.70
2018-04-25T05:50:48.364Z,2.53
2018-04-25T05:55:51.233Z,2.57
2018-04-25T06:00:54.015Z,3.53
2018-04-25T06:05:56.855Z,2.37
2018-04-25T06:11:00.028Z,2.27
2018-04-25T06:16:02.926Z,2.60
2018-04-25T06:21:06.057Z,6.77
2018-04-25T06:26:08.997Z,5.60
2018-04-25T06:31:11.787Z,2.60
2018-04-25T06:36:14.704Z,8.23
2018-04-25T06:41:17.532Z,6.23
2018-04-25T06:46:20.364Z,5.40
2018-04-25T06:51:23.453Z,9.70
2018-04-25T06:56:26.275Z,4.97
2018-04-25T07:01:29.044Z,6.83
2018-04-25T07:06:31.858Z,5.63
2018-04-25T07:11:34.773Z,3.47
2018-04-25T07:16:37.546Z,2.60
2018-04-25T07:21:40.627Z,3.90
2018-04-25T07:26:43.468Z,5.90
2018-04-25T07:31:46.284Z,6.80
2018-04-25T07:36:49.094Z,4.20
2018-04-25T07:41:52.082Z,5.37
2018-04-25T07:46:54.815Z,5.60
2018-04-25T07:51:58.649Z,4.97
2018-04-25T07:57:01.546Z,7.80
2018-04-25T08:02:04.341Z,5.80
2018-04-25T08:07:07.138Z,6.03
2018-04-25T08:12:19.197Z,3.97
2018-04-25T08:17:33.268Z,3.67
2018-04-25T08:22:36.060Z,3.87
2018-04-25T08:27:39.057Z,3.67
2018-04-25T08:32:43.788Z,2.03
2018-04-25T08:37:46.671Z,1.97
2018-04-25T08:42:50.105Z,1.03
2018-04-25T08:47:52.888Z,1.40
2018-04-25T08:52:55.737Z,1.20
2018-04-25T08:57:58.581Z,1.50
2018-04-25T09:03:01.371Z,1.50
2018-04-25T09:08:04.204Z,2.00
2018-04-25T09:13:08.000Z,2.03
2018-04-25T09:18:10.829Z,2.00
2018-04-25T09:23:13.809Z,1.77
2018-04-25T09:28:16.970Z,1.20
2018-04-25T09:33:19.866Z,1.13
2018-04-25T09:38:22.716Z,1.40
2018-04-25T09:43:25.590Z,1.17
2018-04-25T09:48:28.727Z,1.20
2018-04-25T09:53:31.578Z,1.23
2018-04-25T09:58:39.407Z,1.10
2018-04-25T10:03:43.363Z,1.30
2018-04-25T10:08:47.107Z,1.07
2018-04-25T10:13:49.968Z,1.30
2018-04-25T10:18:53.055Z,1.47
2018-04-25T10:23:56.105Z,1.23
2018-04-25T10:28:59.184Z,1.77
2018-04-25T10:34:01.992Z,2.00
2018-04-25T10:39:04.900Z,1.50
2018-04-25T10:44:07.886Z,1.40
2018-04-25T10:49:11.001Z,1.90
2018-04-25T10:54:14.925Z,1.80
2018-04-25T10:59:17.777Z,1.80
2018-04-25T11:04:20.655Z,2.03
2018-04-25T11:09:23.487Z,1.63
2018-04-25T11:14:26.555Z,1.70
2018-04-25T11:19:29.627Z,2.10
2018-04-25T11:24:32.456Z,2.47
2018-04-25T11:29:35.530Z,2.80
2018-04-25T11:34:38.363Z,2.50
2018-04-25T11:39:41.204Z,2.17
2018-04-25T11:44:44.158Z,2.30
2018-04-25T11:49:47.463Z,3.40
2018-04-25T11:54:50.953Z,2.80
2018-04-25T11:59:53.793Z,2.17
2018-04-25T12:04:56.946Z,3.50
2018-04-25T12:09:59.720Z,3.83
2018-04-25T12:15:02.876Z,4.17
2018-04-25T12:20:05.860Z,5.17
2018-04-25T12:25:09.132Z,4.90
2018-04-25T12:30:12.126Z,5.90
2018-04-25T12:35:14.947Z,4.70
2018-04-25T12:40:17.767Z,4.40
2018-04-25T12:45:20.637Z,6.07
2018-04-25T12:50:23.456Z,5.10
2018-04-25T12:55:26.577Z,4.47
2018-04-25T13:00:30.298Z,4.07
2018-04-25T13:05:33.121Z,5.20
2018-04-25T13:10:35.925Z,3.57
2018-04-25T13:15:39.043Z,3.70
2018-04-25T13:20:41.926Z,3.33
2018-04-25T13:25:45.458Z,3.20
2018-04-25T13:30:48.550Z,3.40
2018-04-25T13:35:51.362Z,2.80
2018-04-25T13:40:54.147Z,2.93
2018-04-25T13:45:57.233Z,2.70
2018-04-25T13:51:00.096Z,3.53
2018-04-25T13:56:03.454Z,3.20
2018-04-25T14:01:06.934Z,2.87
2018-04-25T14:06:10.991Z,2.63
2018-04-25T14:11:15.125Z,3.53
2018-04-25T14:16:18.969Z,3.40
2018-04-25T14:21:22.111Z,3.10
2018-04-25T14:26:25.594Z,3.20
2018-04-25T14:31:28.720Z,4.23
2018-04-25T14:36:31.552Z,4.90
2018-04-25T14:41:34.359Z,5.73
2018-04-25T14:46:37.332Z,6.73
2018-04-25T14:51:40.820Z,6.40
2018-04-25T14:56:43.761Z,5.70
2018-04-25T15:01:47.115Z,5.23
2018-04-25T15:06:50.014Z,5.23
2018-04-25T15:11:53.204Z,3.70
2018-04-25T15:16:59.984Z,4.00
2018-04-25T15:22:03.498Z,3.03
2018-04-25T15:27:06.532Z,3.57
2018-04-25T15:32:09.804Z,2.60
2018-04-25T15:37:12.751Z,3.20
2018-04-25T15:42:15.579Z,3.10
2018-04-25T15:47:18.832Z,2.67
2018-04-25T15:52:25.727Z,3.07
2018-04-25T15:57:29.517Z,3.33
2018-04-25T16:02:33.135Z,4.30
2018-04-25T16:07:36.311Z,2.93
2018-04-25T16:13:54.019Z,3.40
2018-04-25T16:18:57.273Z,3.77
2018-04-25T16:24:02.788Z,7.50
2018-04-25T16:29:06.109Z,8.47
2018-04-25T16:34:09.162Z,6.73
2018-04-25T16:39:12.257Z,4.97
2018-04-25T16:44:15.974Z,5.90
2018-04-25T16:49:19.465Z,5.17
2018-04-25T16:54:23.410Z,3.50
2018-04-25T16:59:27.170Z,3.73
2018-04-25T17:04:31.188Z,3.70
2018-04-25T17:09:35.722Z,4.13
2018-04-25T17:14:39.551Z,3.50
2018-04-25T17:19:43.434Z,2.80
2018-04-25T17:24:48.322Z,2.63
2018-04-25T17:29:52.852Z,2.70
2018-04-25T17:34:57.522Z,2.90
2018-04-25T17:40:02.128Z,4.30
2018-04-25T17:45:07.363Z,3.00
2018-04-25T17:50:13.766Z,3.03
2018-04-25T17:55:20.175Z,3.40
2018-04-25T18:00:25.273Z,3.70
2018-04-25T18:05:29.967Z,4.77
2018-04-25T18:10:34.793Z,3.70
2018-04-25T18:15:41.047Z,5.27
2018-04-25T18:20:48.091Z,5.17
2018-04-25T18:25:54.316Z,4.23
2018-04-25T18:30:59.477Z,5.80
2018-04-25T18:36:05.075Z,6.17
2018-04-25T18:41:10.456Z,4.63
2018-04-25T18:46:16.429Z,5.73
2018-04-25T18:51:22.821Z,5.27
2018-04-25T18:56:29.056Z,6.50
2018-04-25T19:01:34.992Z,6.67
2018-04-25T19:06:41.395Z,5.60
2018-04-25T19:11:47.619Z,5.67
2018-04-25T19:16:54.650Z,7.70
2018-04-25T19:22:00.374Z,9.20
2018-04-25T19:27:05.594Z,8.70
2018-04-25T19:32:10.468Z,10.50
2018-04-25T19:37:15.584Z,13.57
2018-04-25T19:42:21.421Z,13.93
2018-04-25T19:47:29.574Z,17.40
2018-04-25T19:52:37.250Z,17.63
2018-04-25T19:57:43.886Z,20.33
2018-04-25T20:02:51.565Z,23.07
2018-04-25T20:07:57.361Z,23.63
2018-04-25T20:13:02.395Z,24.00
2018-04-25T20:18:07.895Z,27.00
2018-04-25T20:23:16.142Z,29.43
2018-04-25T20:28:21.940Z,31.30
2018-04-25T20:33:26.731Z,32.83
2018-04-25T20:38:31.351Z,34.13
2018-04-25T20:43:34.969Z,31.33
2018-04-25T20:48:38.870Z,31.83
2018-04-25T20:53:42.886Z,30.40
2018-04-25T20:58:47.143Z,30.63
2018-04-25T21:03:51.075Z,30.10
2018-04-25T21:08:54.487Z,33.47
2018-04-25T21:13:58.152Z,34.40
2018-04-25T21:19:01.660Z,30.63
2018-04-25T21:24:05.728Z,29.17
2018-04-25T21:29:09.340Z,31.70
2018-04-25T21:34:12.689Z,32.20
2018-04-25T21:39:16.539Z,33.50
2018-04-25T21:44:20.362Z,36.40
2018-04-25T21:49:23.708Z,33.10
2018-04-25T21:54:27.578Z,35.80
2018-04-25T21:59:30.917Z,32.23
2018-04-25T22:04:34.200Z,36.30
2018-04-25T22:09:37.444Z,32.70
2018-04-25T22:14:40.507Z,33.03
2018-04-25T22:19:43.395Z,32.17
2018-04-25T22:24:46.815Z,29.90
2018-04-25T22:29:50.388Z,30.30
2018-04-25T22:34:54.519Z,28.63
2018-04-25T22:39:57.976Z,29.70
2018-04-25T22:45:02.427Z,26.97
2018-04-25T22:50:05.549Z,26.30
2018-04-25T22:55:09.169Z,25.10
2018-04-25T23:00:13.699Z,23.33
2018-04-25T23:05:16.479Z,20.23
2018-04-25T23:10:19.704Z,20.27
2018-04-25T23:15:24.233Z,17.80
2018-04-25T23:20:28.021Z,16.70
2018-04-25T23:25:30.976Z,17.63
2018-04-25T23:30:35.252Z,16.43
2018-04-25T23:35:38.207Z,17.63
2018-04-25T23:40:42.797Z,17.30
2018-04-25T23:45:46.338Z,14.93
2018-04-25T23:50:50.544Z,13.63
2018-04-25T23:55:54.730Z,15.37
